sensor_id;sensor_type;location;lat;lon;timestamp;pressure;altitude;pressure_sealevel;temperature;humidity
61109;BME280;46995;55.740;37.402;2024-03-25T00:00:39;97779.19;;;4.13;82.78
61109;BME280;46995;55.740;37.402;2024-03-25T00:03:05;97792.78;;;4.07;82.54
61109;BME280;46995;55.740;37.402;2024-03-25T00:05:31;97797.69;;;4.01;82.53
61109;BME280;46995;55.740;37.402;2024-03-25T00:07:57;97809.22;;;3.98;82.94
61109;BME280;46995;55.740;37.402;2024-03-25T00:10:23;97818.88;;;3.98;82.35
61109;BME280;46995;55.740;37.402;2024-03-25T00:12:49;97804.97;;;3.97;81.88
61109;BME280;46995;55.740;37.402;2024-03-25T00:15:20;97810.88;;;3.99;81.80
61109;BME280;46995;55.740;37.402;2024-03-25T00:17:49;97807.16;;;3.92;81.48
61109;BME280;46995;55.740;37.402;2024-03-25T00:20:14;97821.00;;;3.83;81.22
61109;BME280;46995;55.740;37.402;2024-03-25T00:22:40;97828.16;;;3.81;81.45
61109;BME280;46995;55.740;37.402;2024-03-25T00:25:06;97818.22;;;3.75;81.38
61109;BME280;46995;55.740;37.402;2024-03-25T00:27:32;97819.97;;;3.65;81.34
61109;BME280;46995;55.740;37.402;2024-03-25T00:29:58;97823.09;;;3.59;81.14
61109;BME280;46995;55.740;37.402;2024-03-25T00:32:24;97815.91;;;3.51;81.56
61109;BME280;46995;55.740;37.402;2024-03-25T00:34:55;97828.00;;;3.52;81.38
61109;BME280;46995;55.740;37.402;2024-03-25T00:37:21;97833.22;;;3.52;81.30
61109;BME280;46995;55.740;37.402;2024-03-25T00:39:47;97834.06;;;3.53;81.33
61109;BME280;46995;55.740;37.402;2024-03-25T00:42:12;97831.00;;;3.48;81.07
61109;BME280;46995;55.740;37.402;2024-03-25T00:44:38;97836.94;;;3.50;81.25
61109;BME280;46995;55.740;37.402;2024-03-25T00:47:04;97829.78;;;3.52;81.33
61109;BME280;46995;55.740;37.402;2024-03-25T00:49:29;97839.03;;;3.56;81.29
61109;BME280;46995;55.740;37.402;2024-03-25T00:51:55;97836.88;;;3.61;81.40
61109;BME280;46995;55.740;37.402;2024-03-25T00:54:21;97838.06;;;3.57;80.72
61109;BME280;46995;55.740;37.402;2024-03-25T00:56:50;97843.34;;;3.46;80.79
61109;BME280;46995;55.740;37.402;2024-03-25T00:59:17;97852.66;;;3.38;80.89
61109;BME280;46995;55.740;37.402;2024-03-25T01:01:42;97858.84;;;3.37;81.17
61109;BME280;46995;55.740;37.402;2024-03-25T01:04:08;97855.28;;;3.38;81.14
61109;BME280;46995;55.740;37.402;2024-03-25T01:06:33;97874.88;;;3.33;81.34
61109;BME280;46995;55.740;37.402;2024-03-25T01:08:59;97867.44;;;3.28;81.30
61109;BME280;46995;55.740;37.402;2024-03-25T01:11:25;97887.47;;;3.28;81.23
61109;BME280;46995;55.740;37.402;2024-03-25T01:13:50;97892.44;;;3.31;81.66
61109;BME280;46995;55.740;37.402;2024-03-25T01:16:16;97894.78;;;3.34;81.05
61109;BME280;46995;55.740;37.402;2024-03-25T01:18:42;97902.47;;;3.35;81.30
61109;BME280;46995;55.740;37.402;2024-03-25T01:21:08;97898.53;;;3.41;80.84
61109;BME280;46995;55.740;37.402;2024-03-25T01:23:34;97905.69;;;3.39;81.01
61109;BME280;46995;55.740;37.402;2024-03-25T01:25:59;97898.09;;;3.36;81.07
61109;BME280;46995;55.740;37.402;2024-03-25T01:28:25;97904.63;;;3.30;81.17
61109;BME280;46995;55.740;37.402;2024-03-25T01:30:51;97888.81;;;3.22;80.85
61109;BME280;46995;55.740;37.402;2024-03-25T01:33:17;97896.19;;;3.17;81.34
61109;BME280;46995;55.740;37.402;2024-03-25T01:35:42;97897.06;;;3.07;81.66
61109;BME280;46995;55.740;37.402;2024-03-25T01:38:08;97903.78;;;3.09;81.52
61109;BME280;46995;55.740;37.402;2024-03-25T01:40:34;97902.84;;;3.10;81.10
61109;BME280;46995;55.740;37.402;2024-03-25T01:43:00;97908.88;;;3.11;81.48
61109;BME280;46995;55.740;37.402;2024-03-25T01:45:27;97911.38;;;3.12;80.81
61109;BME280;46995;55.740;37.402;2024-03-25T01:47:54;97902.16;;;3.08;80.71
61109;BME280;46995;55.740;37.402;2024-03-25T01:50:21;97901.25;;;2.98;80.90
61109;BME280;46995;55.740;37.402;2024-03-25T01:52:48;97917.50;;;2.90;81.00
61109;BME280;46995;55.740;37.402;2024-03-25T01:55:27;97920.16;;;2.79;81.20
61109;BME280;46995;55.740;37.402;2024-03-25T01:57:53;97908.00;;;2.58;81.51
61109;BME280;46995;55.740;37.402;2024-03-25T02:00:19;97912.91;;;2.51;81.57
61109;BME280;46995;55.740;37.402;2024-03-25T02:02:46;97918.91;;;2.51;81.97
61109;BME280;46995;55.740;37.402;2024-03-25T02:05:13;97928.84;;;2.58;82.08
61109;BME280;46995;55.740;37.402;2024-03-25T02:07:40;97942.94;;;2.66;81.59
61109;BME280;46995;55.740;37.402;2024-03-25T02:10:07;97940.66;;;2.73;81.37
61109;BME280;46995;55.740;37.402;2024-03-25T02:12:36;97939.59;;;2.75;80.79
61109;BME280;46995;55.740;37.402;2024-03-25T02:15:04;97941.72;;;2.81;80.91
61109;BME280;46995;55.740;37.402;2024-03-25T02:17:30;97941.81;;;2.91;80.87
61109;BME280;46995;55.740;37.402;2024-03-25T02:19:55;97954.56;;;2.94;80.94
61109;BME280;46995;55.740;37.402;2024-03-25T02:22:22;97947.94;;;3.01;81.17
61109;BME280;46995;55.740;37.402;2024-03-25T02:24:53;97957.88;;;3.07;80.63
61109;BME280;46995;55.740;37.402;2024-03-25T02:27:21;97943.06;;;3.08;80.72
61109;BME280;46995;55.740;37.402;2024-03-25T02:29:48;97947.19;;;3.10;80.75
61109;BME280;46995;55.740;37.402;2024-03-25T02:32:13;97953.69;;;3.16;80.31
61109;BME280;46995;55.740;37.402;2024-03-25T02:34:41;97959.72;;;3.16;80.12
61109;BME280;46995;55.740;37.402;2024-03-25T02:37:08;97973.97;;;3.12;80.29
61109;BME280;46995;55.740;37.402;2024-03-25T02:39:34;97966.84;;;3.14;80.14
61109;BME280;46995;55.740;37.402;2024-03-25T02:42:00;97978.25;;;3.13;80.44
61109;BME280;46995;55.740;37.402;2024-03-25T02:44:26;97986.75;;;3.15;80.23
61109;BME280;46995;55.740;37.402;2024-03-25T02:46:52;97986.91;;;3.14;80.01
61109;BME280;46995;55.740;37.402;2024-03-25T02:49:18;97990.81;;;3.08;80.44
61109;BME280;46995;55.740;37.402;2024-03-25T02:51:43;97993.44;;;3.08;80.45
61109;BME280;46995;55.740;37.402;2024-03-25T02:54:10;97999.22;;;3.12;80.89
61109;BME280;46995;55.740;37.402;2024-03-25T02:56:36;98005.66;;;3.08;80.51
61109;BME280;46995;55.740;37.402;2024-03-25T02:59:01;98016.06;;;3.08;80.76
61109;BME280;46995;55.740;37.402;2024-03-25T03:01:27;98023.53;;;3.12;80.83
61109;BME280;46995;55.740;37.402;2024-03-25T03:03:53;98018.06;;;3.15;80.25
61109;BME280;46995;55.740;37.402;2024-03-25T03:06:22;98023.88;;;3.19;80.15
61109;BME280;46995;55.740;37.402;2024-03-25T03:08:47;98020.28;;;3.20;80.13
61109;BME280;46995;55.740;37.402;2024-03-25T03:11:13;98033.22;;;3.21;79.93
61109;BME280;46995;55.740;37.402;2024-03-25T03:13:39;98035.25;;;3.18;79.92
61109;BME280;46995;55.740;37.402;2024-03-25T03:16:04;98037.25;;;3.14;80.06
61109;BME280;46995;55.740;37.402;2024-03-25T03:18:30;98030.63;;;3.10;80.44
61109;BME280;46995;55.740;37.402;2024-03-25T03:20:56;98047.22;;;3.09;80.36
61109;BME280;46995;55.740;37.402;2024-03-25T03:23:22;98045.22;;;3.13;80.36
61109;BME280;46995;55.740;37.402;2024-03-25T03:25:48;98049.13;;;3.18;80.14
61109;BME280;46995;55.740;37.402;2024-03-25T03:28:16;98054.91;;;3.22;80.05
61109;BME280;46995;55.740;37.402;2024-03-25T03:30:42;98059.66;;;3.17;79.79
61109;BME280;46995;55.740;37.402;2024-03-25T03:33:08;98054.94;;;3.11;79.72
61109;BME280;46995;55.740;37.402;2024-03-25T03:35:34;98056.50;;;3.13;79.89
61109;BME280;46995;55.740;37.402;2024-03-25T03:38:00;98058.59;;;3.19;80.16
61109;BME280;46995;55.740;37.402;2024-03-25T03:40:28;98052.88;;;3.25;79.77
61109;BME280;46995;55.740;37.402;2024-03-25T03:42:53;98070.91;;;3.28;79.45
61109;BME280;46995;55.740;37.402;2024-03-25T03:45:19;98072.44;;;3.31;79.35
61109;BME280;46995;55.740;37.402;2024-03-25T03:47:45;98082.75;;;3.32;79.29
61109;BME280;46995;55.740;37.402;2024-03-25T03:50:11;98077.78;;;3.29;79.05
61109;BME280;46995;55.740;37.402;2024-03-25T03:52:37;98083.00;;;3.29;79.39
61109;BME280;46995;55.740;37.402;2024-03-25T03:55:03;98082.50;;;3.35;78.91
61109;BME280;46995;55.740;37.402;2024-03-25T03:57:30;98083.50;;;3.23;78.90
61109;BME280;46995;55.740;37.402;2024-03-25T03:59:56;98097.97;;;3.16;79.33
61109;BME280;46995;55.740;37.402;2024-03-25T04:02:22;98099.84;;;3.14;79.20
61109;BME280;46995;55.740;37.402;2024-03-25T04:04:48;98103.19;;;3.16;79.47
61109;BME280;46995;55.740;37.402;2024-03-25T04:07:14;98104.38;;;3.23;79.40
61109;BME280;46995;55.740;37.402;2024-03-25T04:09:40;98107.19;;;3.31;79.32
61109;BME280;46995;55.740;37.402;2024-03-25T04:12:06;98109.19;;;3.39;79.11
61109;BME280;46995;55.740;37.402;2024-03-25T04:14:32;98111.19;;;3.47;78.86
61109;BME280;46995;55.740;37.402;2024-03-25T04:16:58;98120.28;;;3.52;78.68
61109;BME280;46995;55.740;37.402;2024-03-25T04:19:24;98115.91;;;3.53;78.53
61109;BME280;46995;55.740;37.402;2024-03-25T04:21:50;98124.56;;;3.53;78.41
61109;BME280;46995;55.740;37.402;2024-03-25T04:24:16;98125.28;;;3.55;77.76
61109;BME280;46995;55.740;37.402;2024-03-25T04:26:42;98128.84;;;3.54;78.05
61109;BME280;46995;55.740;37.402;2024-03-25T04:29:10;98138.44;;;3.54;78.34
61109;BME280;46995;55.740;37.402;2024-03-25T04:31:36;98130.72;;;3.52;78.10
61109;BME280;46995;55.740;37.402;2024-03-25T04:34:03;98139.88;;;3.47;78.61
61109;BME280;46995;55.740;37.402;2024-03-25T04:36:30;98142.41;;;3.37;78.38
61109;BME280;46995;55.740;37.402;2024-03-25T04:38:55;98149.28;;;3.38;78.66
61109;BME280;46995;55.740;37.402;2024-03-25T04:41:21;98142.50;;;3.47;78.42
61109;BME280;46995;55.740;37.402;2024-03-25T04:43:47;98151.50;;;3.54;78.05
61109;BME280;46995;55.740;37.402;2024-03-25T04:46:13;98160.16;;;3.54;78.09
61109;BME280;46995;55.740;37.402;2024-03-25T04:48:39;98159.44;;;3.52;77.97
61109;BME280;46995;55.740;37.402;2024-03-25T04:51:10;98166.69;;;3.49;77.61
61109;BME280;46995;55.740;37.402;2024-03-25T04:53:35;98167.28;;;3.52;77.64
61109;BME280;46995;55.740;37.402;2024-03-25T04:56:01;98172.47;;;3.63;77.81
61109;BME280;46995;55.740;37.402;2024-03-25T04:58:27;98172.72;;;3.71;77.85
61109;BME280;46995;55.740;37.402;2024-03-25T05:00:52;98185.38;;;3.76;77.13
61109;BME280;46995;55.740;37.402;2024-03-25T05:03:19;98196.91;;;3.73;77.04
61109;BME280;46995;55.740;37.402;2024-03-25T05:05:44;98194.91;;;3.66;77.24
61109;BME280;46995;55.740;37.402;2024-03-25T05:08:13;98197.63;;;3.64;77.79
61109;BME280;46995;55.740;37.402;2024-03-25T05:10:39;98199.38;;;3.75;77.59
61109;BME280;46995;55.740;37.402;2024-03-25T05:13:04;98197.44;;;3.88;77.05
61109;BME280;46995;55.740;37.402;2024-03-25T05:15:30;98206.94;;;3.89;77.06
61109;BME280;46995;55.740;37.402;2024-03-25T05:17:56;98212.88;;;3.91;76.88
61109;BME280;46995;55.740;37.402;2024-03-25T05:20:22;98211.09;;;3.92;76.55
61109;BME280;46995;55.740;37.402;2024-03-25T05:22:48;98211.47;;;3.87;76.69
61109;BME280;46995;55.740;37.402;2024-03-25T05:25:13;98220.00;;;3.89;77.03
61109;BME280;46995;55.740;37.402;2024-03-25T05:27:39;98226.16;;;3.88;76.66
61109;BME280;46995;55.740;37.402;2024-03-25T05:30:06;98231.41;;;3.88;77.07
61109;BME280;46995;55.740;37.402;2024-03-25T05:32:32;98227.50;;;3.82;77.00
61109;BME280;46995;55.740;37.402;2024-03-25T05:34:58;98235.94;;;3.75;76.82
61109;BME280;46995;55.740;37.402;2024-03-25T05:37:23;98245.44;;;3.76;77.58
61109;BME280;46995;55.740;37.402;2024-03-25T05:39:49;98246.97;;;3.78;77.22
61109;BME280;46995;55.740;37.402;2024-03-25T05:42:15;98251.13;;;3.81;77.48
61109;BME280;46995;55.740;37.402;2024-03-25T05:44:41;98257.41;;;3.78;77.20
61109;BME280;46995;55.740;37.402;2024-03-25T05:47:07;98256.09;;;3.84;77.09
61109;BME280;46995;55.740;37.402;2024-03-25T05:49:33;98257.63;;;3.98;77.12
61109;BME280;46995;55.740;37.402;2024-03-25T05:51:59;98261.03;;;4.09;76.36
61109;BME280;46995;55.740;37.402;2024-03-25T05:54:25;98259.34;;;4.19;76.74
61109;BME280;46995;55.740;37.402;2024-03-25T05:56:53;98255.47;;;4.35;76.04
61109;BME280;46995;55.740;37.402;2024-03-25T05:59:26;98261.38;;;4.48;76.09
61109;BME280;46995;55.740;37.402;2024-03-25T06:01:52;98268.00;;;4.52;76.01
61109;BME280;46995;55.740;37.402;2024-03-25T06:04:18;98278.97;;;4.46;76.13
61109;BME280;46995;55.740;37.402;2024-03-25T06:06:45;98284.28;;;4.23;76.51
61109;BME280;46995;55.740;37.402;2024-03-25T06:09:10;98284.06;;;4.04;76.85
61109;BME280;46995;55.740;37.402;2024-03-25T06:11:36;98290.50;;;3.89;76.21
61109;BME280;46995;55.740;37.402;2024-03-25T06:14:02;98293.22;;;3.88;76.42
61109;BME280;46995;55.740;37.402;2024-03-25T06:16:29;98286.69;;;3.93;76.27
61109;BME280;46995;55.740;37.402;2024-03-25T06:18:54;98296.44;;;4.02;76.10
61109;BME280;46995;55.740;37.402;2024-03-25T06:21:20;98295.34;;;4.16;76.25
61109;BME280;46995;55.740;37.402;2024-03-25T06:23:48;98301.38;;;4.28;75.93
61109;BME280;46995;55.740;37.402;2024-03-25T06:26:14;98309.66;;;4.33;75.93
61109;BME280;46995;55.740;37.402;2024-03-25T06:28:39;98319.66;;;4.28;75.95
61109;BME280;46995;55.740;37.402;2024-03-25T06:31:05;98319.09;;;4.13;75.48
61109;BME280;46995;55.740;37.402;2024-03-25T06:33:49;98329.88;;;4.19;75.57
61109;BME280;46995;55.740;37.402;2024-03-25T06:36:34;98339.34;;;4.43;74.89
61109;BME280;46995;55.740;37.402;2024-03-25T06:39:00;98343.72;;;4.53;74.27
61109;BME280;46995;55.740;37.402;2024-03-25T06:41:26;98333.44;;;4.61;73.40
61109;BME280;46995;55.740;37.402;2024-03-25T06:43:54;98336.28;;;4.69;73.57
61109;BME280;46995;55.740;37.402;2024-03-25T06:46:20;98340.16;;;4.86;73.76
61109;BME280;46995;55.740;37.402;2024-03-25T06:48:45;98341.69;;;5.09;73.08
61109;BME280;46995;55.740;37.402;2024-03-25T06:51:12;98338.84;;;5.33;72.43
61109;BME280;46995;55.740;37.402;2024-03-25T06:53:37;98346.50;;;5.55;72.21
61109;BME280;46995;55.740;37.402;2024-03-25T06:56:03;98362.88;;;5.69;71.92
61109;BME280;46995;55.740;37.402;2024-03-25T06:58:29;98353.50;;;5.76;71.93
61109;BME280;46995;55.740;37.402;2024-03-25T07:00:55;98355.00;;;5.89;71.21
61109;BME280;46995;55.740;37.402;2024-03-25T07:03:22;98368.53;;;5.94;70.28
61109;BME280;46995;55.740;37.402;2024-03-25T07:05:48;98371.88;;;5.97;71.67
61109;BME280;46995;55.740;37.402;2024-03-25T07:08:15;98379.44;;;6.00;70.77
61109;BME280;46995;55.740;37.402;2024-03-25T07:10:44;98377.81;;;6.08;70.33
61109;BME280;46995;55.740;37.402;2024-03-25T07:13:10;98380.47;;;6.18;70.78
61109;BME280;46995;55.740;37.402;2024-03-25T07:15:37;98391.75;;;6.09;69.71
61109;BME280;46995;55.740;37.402;2024-03-25T07:18:03;98396.31;;;6.07;71.62
61109;BME280;46995;55.740;37.402;2024-03-25T07:20:29;98388.88;;;6.12;70.96
61109;BME280;46995;55.740;37.402;2024-03-25T07:22:54;98391.66;;;6.20;71.37
61109;BME280;46995;55.740;37.402;2024-03-25T07:25:21;98402.69;;;6.23;71.05
61109;BME280;46995;55.740;37.402;2024-03-25T07:27:47;98399.44;;;6.31;70.37
61109;BME280;46995;55.740;37.402;2024-03-25T07:30:12;98402.50;;;6.46;70.13
61109;BME280;46995;55.740;37.402;2024-03-25T07:32:39;98413.44;;;6.60;70.57
61109;BME280;46995;55.740;37.402;2024-03-25T07:35:04;98411.66;;;6.70;69.65
61109;BME280;46995;55.740;37.402;2024-03-25T07:37:30;98408.78;;;6.73;69.34
61109;BME280;46995;55.740;37.402;2024-03-25T07:39:56;98419.13;;;6.65;68.86
61109;BME280;46995;55.740;37.402;2024-03-25T07:42:22;98423.81;;;6.71;69.92
61109;BME280;46995;55.740;37.402;2024-03-25T07:44:47;98424.66;;;6.81;69.83
61109;BME280;46995;55.740;37.402;2024-03-25T07:47:13;98436.72;;;6.94;69.59
61109;BME280;46995;55.740;37.402;2024-03-25T07:49:40;98436.00;;;6.92;69.36
61109;BME280;46995;55.740;37.402;2024-03-25T07:52:07;98429.69;;;6.94;68.95
61109;BME280;46995;55.740;37.402;2024-03-25T07:54:32;98431.31;;;6.86;68.91
61109;BME280;46995;55.740;37.402;2024-03-25T07:56:58;98446.50;;;6.92;69.01
61109;BME280;46995;55.740;37.402;2024-03-25T07:59:24;98442.41;;;7.08;69.05
61109;BME280;46995;55.740;37.402;2024-03-25T08:01:49;98443.22;;;7.28;68.43
61109;BME280;46995;55.740;37.402;2024-03-25T08:04:15;98436.88;;;7.40;67.87
61109;BME280;46995;55.740;37.402;2024-03-25T08:06:42;98438.25;;;7.44;66.95
61109;BME280;46995;55.740;37.402;2024-03-25T08:09:07;98439.38;;;7.51;67.90
61109;BME280;46995;55.740;37.402;2024-03-25T08:11:35;98444.06;;;7.48;65.72
61109;BME280;46995;55.740;37.402;2024-03-25T08:14:01;98452.09;;;7.46;67.42
61109;BME280;46995;55.740;37.402;2024-03-25T08:16:26;98442.41;;;7.37;68.04
61109;BME280;46995;55.740;37.402;2024-03-25T08:18:52;98441.19;;;7.32;67.08
61109;BME280;46995;55.740;37.402;2024-03-25T08:21:17;98448.19;;;7.12;65.52
61109;BME280;46995;55.740;37.402;2024-03-25T08:23:46;98445.44;;;7.04;63.58
61109;BME280;46995;55.740;37.402;2024-03-25T08:26:12;98452.06;;;6.98;64.33
61109;BME280;46995;55.740;37.402;2024-03-25T08:28:38;98450.25;;;6.99;67.19
61109;BME280;46995;55.740;37.402;2024-03-25T08:31:04;98453.44;;;7.12;66.68
61109;BME280;46995;55.740;37.402;2024-03-25T08:33:30;98450.16;;;7.29;65.60
61109;BME280;46995;55.740;37.402;2024-03-25T08:35:56;98452.38;;;7.53;66.00
61109;BME280;46995;55.740;37.402;2024-03-25T08:38:22;98459.00;;;7.57;63.05
61109;BME280;46995;55.740;37.402;2024-03-25T08:40:48;98459.69;;;7.49;66.18
61109;BME280;46995;55.740;37.402;2024-03-25T08:43:14;98465.78;;;7.31;64.33
61109;BME280;46995;55.740;37.402;2024-03-25T08:45:39;98473.94;;;7.37;66.08
61109;BME280;46995;55.740;37.402;2024-03-25T08:48:06;98472.81;;;7.40;65.91
61109;BME280;46995;55.740;37.402;2024-03-25T08:50:32;98467.03;;;7.36;65.32
61109;BME280;46995;55.740;37.402;2024-03-25T08:52:57;98465.91;;;7.29;63.51
61109;BME280;46995;55.740;37.402;2024-03-25T08:55:23;98473.38;;;7.24;64.62
61109;BME280;46995;55.740;37.402;2024-03-25T08:57:49;98473.91;;;7.08;65.84
61109;BME280;46995;55.740;37.402;2024-03-25T09:00:15;98484.41;;;7.18;66.16
61109;BME280;46995;55.740;37.402;2024-03-25T09:02:40;98487.31;;;7.24;65.43
61109;BME280;46995;55.740;37.402;2024-03-25T09:05:07;98489.41;;;7.31;65.98
61109;BME280;46995;55.740;37.402;2024-03-25T09:07:33;98487.47;;;7.42;65.76
61109;BME280;46995;55.740;37.402;2024-03-25T09:09:59;98491.47;;;7.56;65.25
61109;BME280;46995;55.740;37.402;2024-03-25T09:12:43;98487.19;;;7.64;64.83
61109;BME280;46995;55.740;37.402;2024-03-25T09:15:09;98488.03;;;7.55;63.89
61109;BME280;46995;55.740;37.402;2024-03-25T09:17:38;98490.53;;;7.38;65.38
61109;BME280;46995;55.740;37.402;2024-03-25T09:20:04;98505.56;;;7.26;66.00
61109;BME280;46995;55.740;37.402;2024-03-25T09:22:34;98498.25;;;7.20;66.14
61109;BME280;46995;55.740;37.402;2024-03-25T09:25:03;98508.63;;;7.31;65.88
61109;BME280;46995;55.740;37.402;2024-03-25T09:27:29;98496.59;;;7.57;65.38
61109;BME280;46995;55.740;37.402;2024-03-25T09:29:55;98505.59;;;7.74;64.29
61109;BME280;46995;55.740;37.402;2024-03-25T09:32:21;98512.34;;;7.86;64.55
61109;BME280;46995;55.740;37.402;2024-03-25T09:34:49;98511.78;;;7.92;62.79
61109;BME280;46995;55.740;37.402;2024-03-25T09:37:15;98516.22;;;7.92;63.76
61109;BME280;46995;55.740;37.402;2024-03-25T09:39:42;98509.56;;;7.97;64.44
61109;BME280;46995;55.740;37.402;2024-03-25T09:44:56;98517.63;;;7.77;62.73
61109;BME280;46995;55.740;37.402;2024-03-25T09:47:22;98523.56;;;7.79;63.76
61109;BME280;46995;55.740;37.402;2024-03-25T09:49:49;98525.91;;;7.91;63.30
61109;BME280;46995;55.740;37.402;2024-03-25T09:52:17;98524.22;;;8.09;63.36
61109;BME280;46995;55.740;37.402;2024-03-25T09:54:43;98528.09;;;8.15;63.23
61109;BME280;46995;55.740;37.402;2024-03-25T09:57:08;98528.91;;;8.06;63.05
61109;BME280;46995;55.740;37.402;2024-03-25T09:59:34;98527.28;;;8.05;61.83
61109;BME280;46995;55.740;37.402;2024-03-25T10:02:01;98531.41;;;8.07;63.41
61109;BME280;46995;55.740;37.402;2024-03-25T10:04:26;98533.78;;;7.91;63.80
61109;BME280;46995;55.740;37.402;2024-03-25T10:06:52;98533.53;;;7.85;63.35
61109;BME280;46995;55.740;37.402;2024-03-25T10:09:23;98536.44;;;7.82;63.04
61109;BME280;46995;55.740;37.402;2024-03-25T10:11:50;98530.63;;;7.88;61.65
61109;BME280;46995;55.740;37.402;2024-03-25T10:14:16;98527.28;;;8.05;62.05
61109;BME280;46995;55.740;37.402;2024-03-25T10:16:42;98537.78;;;8.15;62.28
61109;BME280;46995;55.740;37.402;2024-03-25T10:19:09;98528.66;;;8.09;58.75
61109;BME280;46995;55.740;37.402;2024-03-25T10:21:35;98534.75;;;8.00;60.36
61109;BME280;46995;55.740;37.402;2024-03-25T10:24:04;98537.81;;;8.05;60.32
61109;BME280;46995;55.740;37.402;2024-03-25T10:26:31;98537.25;;;8.11;62.07
61109;BME280;46995;55.740;37.402;2024-03-25T10:29:03;98540.28;;;8.16;61.61
61109;BME280;46995;55.740;37.402;2024-03-25T10:31:33;98532.19;;;8.27;59.88
61109;BME280;46995;55.740;37.402;2024-03-25T10:33:59;98533.31;;;8.25;61.54
61109;BME280;46995;55.740;37.402;2024-03-25T10:36:25;98534.72;;;8.19;62.12
61109;BME280;46995;55.740;37.402;2024-03-25T10:38:55;98537.50;;;8.08;62.65
61109;BME280;46995;55.740;37.402;2024-03-25T10:41:21;98540.03;;;8.00;61.42
61109;BME280;46995;55.740;37.402;2024-03-25T10:43:48;98538.63;;;7.96;62.55
61109;BME280;46995;55.740;37.402;2024-03-25T10:46:18;98538.44;;;8.17;61.99
61109;BME280;46995;55.740;37.402;2024-03-25T10:48:54;98543.00;;;8.43;61.97
61109;BME280;46995;55.740;37.402;2024-03-25T10:51:25;98536.63;;;8.46;60.37
61109;BME280;46995;55.740;37.402;2024-03-25T10:53:52;98541.34;;;8.42;61.51
61109;BME280;46995;55.740;37.402;2024-03-25T10:56:20;98520.59;;;8.20;61.06
61109;BME280;46995;55.740;37.402;2024-03-25T10:58:46;98550.38;;;8.21;58.84
61109;BME280;46995;55.740;37.402;2024-03-25T11:01:15;98551.94;;;7.94;61.31
61109;BME280;46995;55.740;37.402;2024-03-25T11:03:43;98547.78;;;7.73;59.66
61109;BME280;46995;55.740;37.402;2024-03-25T11:06:10;98554.53;;;7.56;59.72
61109;BME280;46995;55.740;37.402;2024-03-25T11:08:36;98558.28;;;7.53;62.40
61109;BME280;46995;55.740;37.402;2024-03-25T11:11:04;98552.31;;;7.51;57.90
61109;BME280;46995;55.740;37.402;2024-03-25T11:13:31;98547.00;;;7.22;57.01
61109;BME280;46995;55.740;37.402;2024-03-25T11:15:56;98555.13;;;7.00;60.93
61109;BME280;46995;55.740;37.402;2024-03-25T11:18:24;98548.28;;;6.78;58.93
61109;BME280;46995;55.740;37.402;2024-03-25T11:21:01;98549.72;;;6.62;61.35
61109;BME280;46995;55.740;37.402;2024-03-25T11:23:34;98550.88;;;6.69;62.59
61109;BME280;46995;55.740;37.402;2024-03-25T11:26:00;98548.72;;;6.84;62.46
61109;BME280;46995;55.740;37.402;2024-03-25T11:28:26;98549.72;;;7.02;62.02
61109;BME280;46995;55.740;37.402;2024-03-25T11:30:54;98556.16;;;7.28;61.97
61109;BME280;46995;55.740;37.402;2024-03-25T11:33:21;98551.19;;;7.44;61.37
61109;BME280;46995;55.740;37.402;2024-03-25T11:35:50;98556.06;;;7.58;60.69
61109;BME280;46995;55.740;37.402;2024-03-25T11:38:16;98558.53;;;7.70;56.73
61109;BME280;46995;55.740;37.402;2024-03-25T11:40:43;98550.94;;;7.76;57.85
61109;BME280;46995;55.740;37.402;2024-03-25T11:43:21;98559.94;;;7.93;60.09
61109;BME280;46995;55.740;37.402;2024-03-25T11:45:47;98555.78;;;8.00;59.60
61109;BME280;46995;55.740;37.402;2024-03-25T11:48:16;98553.84;;;8.02;60.76
61109;BME280;46995;55.740;37.402;2024-03-25T11:50:46;98558.84;;;8.05;60.70
61109;BME280;46995;55.740;37.402;2024-03-25T11:53:19;98553.84;;;8.02;60.58
61109;BME280;46995;55.740;37.402;2024-03-25T11:55:47;98551.22;;;7.83;59.66
61109;BME280;46995;55.740;37.402;2024-03-25T11:58:13;98562.72;;;7.62;61.42
61109;BME280;46995;55.740;37.402;2024-03-25T12:00:46;98561.59;;;7.55;61.59
61109;BME280;46995;55.740;37.402;2024-03-25T12:03:14;98561.03;;;7.52;61.59
61109;BME280;46995;55.740;37.402;2024-03-25T12:05:41;98566.97;;;7.44;61.41
61109;BME280;46995;55.740;37.402;2024-03-25T12:08:08;98559.34;;;7.22;59.89
61109;BME280;46995;55.740;37.402;2024-03-25T12:10:36;98566.91;;;7.15;61.12
61109;BME280;46995;55.740;37.402;2024-03-25T12:13:22;98568.97;;;7.12;58.83
61109;BME280;46995;55.740;37.402;2024-03-25T12:15:49;98566.06;;;7.05;61.49
61109;BME280;46995;55.740;37.402;2024-03-25T12:18:15;98569.25;;;7.09;61.21
61109;BME280;46995;55.740;37.402;2024-03-25T12:20:41;98570.94;;;7.19;61.31
61109;BME280;46995;55.740;37.402;2024-03-25T12:23:07;98567.38;;;7.49;61.38
61109;BME280;46995;55.740;37.402;2024-03-25T12:25:32;98575.00;;;8.39;60.37
61109;BME280;46995;55.740;37.402;2024-03-25T12:27:58;98565.63;;;9.73;58.86
61109;BME280;46995;55.740;37.402;2024-03-25T12:30:24;98564.97;;;11.18;56.43
61109;BME280;46995;55.740;37.402;2024-03-25T12:32:52;98558.06;;;12.56;54.42
61109;BME280;46995;55.740;37.402;2024-03-25T12:35:18;98551.38;;;13.85;52.26
61109;BME280;46995;55.740;37.402;2024-03-25T12:37:47;98547.66;;;15.13;50.41
61109;BME280;46995;55.740;37.402;2024-03-25T12:40:36;98553.72;;;16.15;39.26
61109;BME280;46995;55.740;37.402;2024-03-25T12:43:00;98549.75;;;16.74;47.15
61109;BME280;46995;55.740;37.402;2024-03-25T12:45:26;98552.50;;;17.35;46.88
61109;BME280;46995;55.740;37.402;2024-03-25T12:47:53;98544.91;;;17.93;45.20
61109;BME280;46995;55.740;37.402;2024-03-25T12:50:19;98542.06;;;18.20;34.90
61109;BME280;46995;55.740;37.402;2024-03-25T12:52:49;98537.75;;;18.00;42.51
61109;BME280;46995;55.740;37.402;2024-03-25T12:55:14;98537.13;;;18.24;42.03
61109;BME280;46995;55.740;37.402;2024-03-25T12:57:40;98540.44;;;18.52;44.82
61109;BME280;46995;55.740;37.402;2024-03-25T13:00:07;98534.84;;;18.74;46.24